Terminal Aerodrome Forecast
Issued by NWS

Home | Current Version | Previous Version | Text Only | Print | Product List | Glossary On
Versions: 1 2 3 4 5 6 7 8 9 10 11 12 13 14 15 16 17 18 19 20 21 22
757
FTUS45 KRIW 230537
TAFRKS
TAF
KRKS 230537Z 2306/2406 20014KT 3SM -SN OVC030
      TEMPO 2308/2312 1SM -SN OVC015
     FM231400 19014KT P6SM VCSH SCT030 OVC050
     FM231900 20011KT 3SM -SN OVC025
     FM240400 30011KT 1SM -SN SCT008 OVC012=

USA.gov is the U.S. government's official web portal to all federal, state and local government web resources and services.